Terminal Aerodrome Forecast
Issued by NWS

Home | Current Version | Previous Version | Text Only | Print | Product List | Glossary On
Versions: 1 2 3 4 5 6 7 8 9 10 11 12 13 14 15 16 17 18 19 20 21 22 23
000
FTUS46 KSEW 311500 AAA
TAFSEA
TAF AMD
KSEA 311508Z 3115/0118 VRB03KT P6SM -SHRA SCT020 OVC040
      TEMPO 3115/3118 2SM -SHRA BR BKN003 OVC008
     FM312000 21006KT P6SM VCSH SCT020 BKN040
     FM010600 18006KT P6SM BKN015 OVC040=

USA.gov is the U.S. government's official web portal to all federal, state and local government web resources and services.